Flight Track Log - Related Links

Times and Time Zones

All times are in EDT time to prevent confusion due to time zone crossing. See the DAL1468 flight status page for this flight to view local times or setup timezone preferences in your user account.

Time Position Orientation Groundspeed Altitude Reporting Facility
EDT Latitude Longitude Course Direction KTS MPH feet Rate Location/Type
Tue 01:47:23 AM 37.6667 -122.3500 78° East 190 219 2,300  Level Northern Cal TRACON
Tue 01:48:17 AM 37.7167 -122.3333 15° North 263 303 4,200 2,504 Climbing Northern Cal TRACON
Tue 01:49:18 AM 37.8000 -122.3667 342° North 280 322 7,100 2,198 Climbing Northern Cal TRACON
Tue 01:50:00 AM 37.9575 -122.1778 84° East  Level FlightAware Approximate
Tue 01:51:00 AM 37.9667 -122.0226 90° East  Level FlightAware Approximate
Tue 01:51:09 AM 37.9347 -122.3692 359° North 323 372 10,500  Level Oakland Center
Tue 01:52:00 AM 37.9803 -121.8685 78° East  Level FlightAware Approximate
Tue 01:52:10 AM 37.9769 -122.2589 64° Northeast 368 423 12,200  Level Oakland Center
Tue 01:53:11 AM 37.9664 -122.1228 96° East 386 444 14,600 2,115 Climbing Oakland Center
Tue 01:54:12 AM 37.9817 -121.9783 82° East 411 473 16,500 1,488 Climbing Oakland Center
Tue 01:55:12 AM 37.9947 -121.8286 84° East 425 489 17,600 1,686 Climbing Oakland Center
Tue 01:56:13 AM 38.0139 -121.6800 81° East 428 493 19,900 1,820 Climbing Oakland Center
Tue 01:57:14 AM 38.0450 -121.5264 76° East 446 513 21,300 1,537 Climbing Oakland Center
Tue 01:58:14 AM 38.0819 -121.3467 75° East 465 535 23,000 1,488 Climbing Oakland Center
Tue 01:59:15 AM 38.1153 -121.1836 75° East 478 550 24,300 1,279 Climbing Oakland Center
Tue 02:00:16 AM 38.1483 -121.0153 76° East 492 566 25,600 1,240 Climbing Oakland Center
Tue 02:01:16 AM 38.1828 -120.8444 76° East 501 577 26,800 1,091 Climbing Oakland Center
Tue 02:02:17 AM 38.2175 -120.6692 76° East 511 588 27,800 1,574 Climbing Oakland Center
Tue 02:03:18 AM 38.2525 -120.4956 76° East 511 588 30,000 1,736 Climbing Oakland Center
Tue 02:04:18 AM 38.2853 -120.3244 76° East 501 577 31,300 1,388 Climbing Oakland Center
Tue 02:05:19 AM 38.3178 -120.1553 76° East 496 571 32,800 1,537 Climbing Oakland Center
Tue 02:06:19 AM 38.3567 -119.9514 76° East 494 568 34,400 1,328 Climbing Oakland Center
Tue 02:07:21 AM 38.3889 -119.7822 76° East 493 567 35,500 1,082 Climbing Oakland Center
Tue 02:08:21 AM 38.4161 -119.6403 76° East 488 562 36,600 750 Climbing Oakland Center
Tue 02:09:21 AM 38.4236 -119.4739 87° East 471 542 37,000 198 Climbing Oakland Center
Tue 02:10:22 AM 38.4283 -119.2731 88° East 474 545 37,000  Level Oakland Center
Tue 02:11:22 AM 38.4350 -119.1036 87° East 478 550 37,000  Level Oakland Center
Tue 02:12:23 AM 38.4394 -118.9331 88° East 482 555 37,000  Level Oakland Center
Tue 02:13:24 AM 38.4428 -118.7628 89° East 482 555 37,000  Level Oakland Center
Tue 02:14:24 AM 38.4467 -118.5919 88° East 484 557 37,000  Level Oakland Center
Tue 02:15:25 AM 38.4494 -118.4208 89° East 484 557 37,000  Level Oakland Center
Tue 02:16:25 AM 38.4525 -118.2494 89° East 484 557 37,000  Level Oakland Center
Tue 02:17:26 AM 38.4556 -118.0706 89° East 482 555 37,000  Level Oakland Center
Tue 02:18:26 AM 38.4586 -117.9008 89° East 479 551 37,000  Level Oakland Center
Tue 02:19:27 AM 38.4600 -117.7300 89° East 480 552 37,000  Level Oakland Center
Tue 02:20:27 AM 38.4619 -117.5592 89° East 479 551 37,000  Level Oakland Center
Tue 02:21:28 AM 38.4633 -117.3883 89° East 478 550 37,000  Level Oakland Center
Tue 02:22:03 AM 38.4636 -117.2856 90° East 476 548 37,000  Level Salt Lake Center
Tue 02:23:03 AM 38.4650 -117.1492 89° East 476 548 37,000  Level Salt Lake Center
Tue 02:24:04 AM 38.4653 -116.9781 90° East 477 549 37,000  Level Salt Lake Center
Tue 02:25:04 AM 38.4658 -116.8086 90° East 474 545 37,000  Level Salt Lake Center
Tue 02:26:05 AM 38.4664 -116.6044 90° East 477 549 37,000  Level Salt Lake Center
Tue 02:27:05 AM 38.4667 -116.4331 90° East 480 552 37,000  Level Salt Lake Center
Tue 02:28:06 AM 38.4661 -116.2622 90° East 481 554 37,000  Level Salt Lake Center
Tue 02:29:07 AM 38.4669 -116.0903 90° East 484 557 37,000  Level Salt Lake Center
Tue 02:30:07 AM 38.4653 -115.9183 91° East 485 558 37,000  Level Salt Lake Center
Tue 02:31:08 AM 38.4647 -115.7458 90° East 486 559 37,000  Level Salt Lake Center
Tue 02:32:08 AM 38.4639 -115.5756 90° East 482 555 37,000  Level Salt Lake Center
Tue 02:33:09 AM 38.4606 -115.4036 91° East 484 557 37,000  Level Salt Lake Center
Tue 02:34:09 AM 38.4608 -115.2414 90° East 485 558 37,000  Level Salt Lake Center
Tue 02:35:10 AM 38.4592 -115.0675 91° East 489 563 37,000  Level Salt Lake Center
Tue 02:36:10 AM 38.4572 -114.8950 91° East 488 562 37,000  Level Salt Lake Center
Tue 02:37:11 AM 38.4558 -114.7211 91° East 490 564 37,000  Level Salt Lake Center
Tue 02:38:11 AM 38.4528 -114.5478 91° East 489 563 37,000  Level Salt Lake Center
Tue 02:39:12 AM 38.4500 -114.3744 91° East 489 563 37,000  Level Salt Lake Center
Tue 02:40:13 AM 38.4475 -114.1989 91° East 493 567 37,000  Level Salt Lake Center
Tue 02:41:13 AM 38.4447 -114.0239 91° East 495 570 37,000  Level Salt Lake Center
Tue 02:42:14 AM 38.4406 -113.8497 92° East 493 567 37,000  Level Salt Lake Center
Tue 02:43:14 AM 38.4369 -113.6728 91° East 497 572 37,000  Level Salt Lake Center
Tue 02:44:15 AM 38.4325 -113.4994 92° East 491 565 37,000  Level Salt Lake Center
Tue 02:45:15 AM 38.4278 -113.3275 92° East 487 560 37,000  Level Salt Lake Center
Tue 02:46:16 AM 38.4239 -113.1542 92° East 487 560 37,000  Level Salt Lake Center
Tue 02:47:16 AM 38.4181 -112.9797 92° East 491 565 37,000  Level Salt Lake Center
Tue 02:48:17 AM 38.4133 -112.8044 96° East 493 567 37,000  Level Salt Lake Center
Tue 02:49:00 AM 38.3960 -112.7097 96° East  Level FlightAware Approximate
Tue 02:51:19 AM 38.3969 -112.2828 92° East 490 564 37,000  Level Salt Lake Center
Tue 02:52:19 AM 38.3886 -112.0750 93° East 489 563 37,000  Level Salt Lake Center
Tue 02:54:20 AM 38.3758 -111.7300 93° East 488 562 37,000  Level Salt Lake Center
Tue 02:55:21 AM 38.3681 -111.5586 93° East 486 559 37,000  Level Salt Lake Center
Tue 02:56:21 AM 38.3622 -111.3861 92° East 488 562 37,000  Level Salt Lake Center
Tue 02:57:22 AM 38.3542 -111.2128 93° East 490 564 37,000  Level Salt Lake Center
Tue 02:58:22 AM 38.3467 -111.0414 93° East 487 560 37,000  Level Salt Lake Center
Tue 02:59:23 AM 38.3389 -110.8706 93° East 484 557 37,000  Level Salt Lake Center
Tue 03:00:23 AM 38.3303 -110.7086 94° East 481 554 37,000  Level Salt Lake Center
Tue 03:01:24 AM 38.3225 -110.5450 93° East 484 557 37,000  Level Salt Lake Center
Tue 03:02:24 AM 38.3119 -110.3564 94° East 481 554 37,000  Level Salt Lake Center
Tue 03:03:25 AM 38.3039 -110.1953 94° East 479 551 37,000  Level Salt Lake Center
Tue 03:04:25 AM 38.2953 -110.0344 94° East 478 550 37,000  Level Salt Lake Center
Tue 03:05:26 AM 38.2853 -109.8461 94° East 478 550 37,000  Level Salt Lake Center
Tue 03:06:27 AM 38.2756 -109.6856 94° East 477 549 37,000  Level Salt Lake Center
Tue 03:07:27 AM 38.2658 -109.5242 94° East 479 551 37,000  Level Salt Lake Center
Tue 03:08:28 AM 38.2547 -109.3358 94° East 480 552 37,000  Level Salt Lake Center
Tue 03:09:28 AM 38.2442 -109.1753 95° East 478 550 37,000  Level Salt Lake Center
Tue 03:10:29 AM 38.2339 -109.0153 95° East 477 549 37,000  Level Salt Lake Center
Tue 03:11:29 AM 38.2225 -108.8267 94° East 480 552 37,000  Level Salt Lake Center
Tue 03:12:41 AM 38.2094 -108.6356 95° East 481 554 37,000  Level Denver Center
Tue 03:13:42 AM 38.1989 -108.4719 95° East 485 558 37,000  Level Denver Center
Tue 03:14:42 AM 38.1861 -108.2808 95° East 487 560 37,000  Level Denver Center
Tue 03:15:43 AM 38.1747 -108.1183 95° East 484 557 37,000  Level Denver Center
Tue 03:16:43 AM 38.1628 -107.9519 95° East 491 565 37,000  Level Denver Center
Tue 03:17:44 AM 38.1489 -107.7600 95° East 491 565 37,000  Level Denver Center
Tue 03:18:44 AM 38.1367 -107.5967 95° East 489 563 37,000  Level Denver Center
Tue 03:19:45 AM 38.1242 -107.4314 95° East 490 564 37,000  Level Denver Center
Tue 03:20:45 AM 38.1089 -107.2406 96° East 488 562 37,000  Level Denver Center
Tue 03:21:46 AM 38.0967 -107.0933 96° East 486 559 37,000  Level Denver Center
Tue 03:22:46 AM 38.0831 -106.9139 95° East 487 560 37,000  Level Denver Center
Tue 03:23:47 AM 38.0672 -106.7244 96° East 485 558 37,000  Level Denver Center
Tue 03:24:47 AM 38.0542 -106.5628 96° East 483 556 37,000  Level Denver Center
Tue 03:25:48 AM 38.0406 -106.4033 96° East 484 557 37,000  Level Denver Center
Tue 03:26:48 AM 38.0233 -106.2158 97° East 481 554 37,000  Level Denver Center
Tue 03:27:49 AM 38.0108 -106.0564 96° East 476 548 37,000  Level Denver Center
Tue 03:28:49 AM 37.9947 -105.8950 97° East 480 552 37,000  Level Denver Center
Tue 03:29:50 AM 37.9786 -105.7089 96° East 476 548 37,000  Level Denver Center
Tue 03:30:50 AM 37.9639 -105.5517 97° East 471 542 37,000  Level Denver Center
Tue 03:31:51 AM 37.9492 -105.3919 97° East 474 545 37,000  Level Denver Center
Tue 03:32:51 AM 37.9339 -105.2344 97° East 470 541 37,000  Level Denver Center
Tue 03:33:52 AM 37.9161 -105.0511 97° East 470 541 37,000  Level Denver Center
Tue 03:34:52 AM 37.9008 -104.8942 97° East 468 539 37,000  Level Denver Center
Tue 03:35:53 AM 37.8858 -104.7358 97° East 472 543 37,000  Level Denver Center
Tue 03:36:53 AM 37.8669 -104.5533 97° East 469 540 37,000  Level Denver Center
Tue 03:37:54 AM 37.8506 -104.3964 97° East 468 539 37,000  Level Denver Center
Tue 03:38:54 AM 37.8350 -104.2414 97° East 463 533 37,000  Level Denver Center
Tue 03:39:55 AM 37.8186 -104.0833 97° East 466 536 37,000  Level Denver Center
Tue 03:40:55 AM 37.7992 -103.8983 98° East 470 541 37,000  Level Denver Center
Tue 03:41:56 AM 37.7819 -103.7433 98° East 463 533 37,000  Level Denver Center
Tue 03:42:56 AM 37.7656 -103.5894 98° East 458 527 37,000  Level Denver Center
Tue 03:43:57 AM 37.7483 -103.4383 98° East 454 522 37,000  Level Denver Center
Tue 03:44:57 AM 37.7289 -103.2619 98° East 452 520 37,000  Level Denver Center
Tue 03:45:58 AM 37.7114 -103.1139 98° East 445 512 37,000  Level Denver Center
Tue 03:46:58 AM 37.6939 -102.9675 99° East 441 507 37,000  Level Denver Center
Tue 03:47:59 AM 37.6753 -102.7969 98° East 439 505 37,000  Level Denver Center
Tue 03:48:59 AM 37.6572 -102.6547 99° East 431 496 37,000  Level Denver Center
Tue 03:49:59 AM 37.6417 -102.5131 98° East 427 491 37,000  Level Denver Center
Tue 03:51:00 AM 37.6217 -102.3603 99° East 421 484 37,000  Level Denver Center
Tue 03:51:41 AM 37.6108 -102.2667 98° East 420 483 37,000  Level Kansas City Center
Tue 03:52:40 AM 37.5936 -102.1272 99° East 420 483 37,000  Level Kansas City Center
Tue 03:53:42 AM 37.5767 -101.9892 99° East 418 481 37,000  Level Kansas City Center
Tue 03:54:41 AM 37.5564 -101.8269 99° East 419 482 37,000  Level Kansas City Center
Tue 03:55:41 AM 37.5383 -101.6867 99° East 422 486 37,000  Level Kansas City Center
Tue 03:56:41 AM 37.5206 -101.5469 99° East 424 488 37,000  Level Kansas City Center
Tue 03:57:43 AM 37.4992 -101.3814 99° East 428 493 37,000  Level Kansas City Center
Tue 03:58:44 AM 37.4806 -101.2400 99° East 430 495 37,000  Level Kansas City Center
Tue 03:59:43 AM 37.4617 -101.1028 100° East 424 488 37,000  Level Kansas City Center
Tue 04:00:43 AM 37.4406 -100.9467 100° East 413 475 37,000  Level Kansas City Center
Tue 04:01:45 AM 37.4236 -100.8131 99° East 410 472 37,000  Level Kansas City Center
Tue 04:02:45 AM 37.4019 -100.6556 100° East 413 475 37,000  Level Kansas City Center
Tue 04:03:43 AM 37.3839 -100.5200 99° East 413 475 37,000  Level Kansas City Center
Tue 04:04:46 AM 37.3647 -100.3850 100° East 412 474 37,000  Level Kansas City Center
Tue 04:05:45 AM 37.3436 -100.2306 100° East 405 466 37,000  Level Kansas City Center
Tue 04:06:47 AM 37.3244 -100.1011 101° East 398 458 37,000  Level Kansas City Center
Tue 04:07:48 AM 37.3081 -99.9719 99° East 393 452 37,000  Level Kansas City Center
Tue 04:08:46 AM 37.2892 -99.8469 101° East 386 444 37,000  Level Kansas City Center
Tue 04:09:49 AM 37.2669 -99.7014 101° East 382 440 37,000  Level Kansas City Center
Tue 04:10:47 AM 37.2489 -99.5725 100° East 389 448 37,000  Level Kansas City Center
Tue 04:11:49 AM 37.2292 -99.4356 100° East 394 453 37,000  Level Kansas City Center
Tue 04:12:50 AM 37.2106 -99.3044 100° East 399 459 37,000  Level Kansas City Center
Tue 04:13:51 AM 37.1900 -99.1644 100° East 403 464 37,000  Level Kansas City Center
Tue 04:14:51 AM 37.1672 -99.0186 101° East 408 470 37,000  Level Kansas City Center
Tue 04:15:49 AM 37.1456 -98.8792 101° East 410 472 37,000  Level Kansas City Center
Tue 04:16:52 AM 37.1242 -98.7381 101° East 412 474 37,000  Level Kansas City Center
Tue 04:17:53 AM 37.1028 -98.5992 101° East 410 472 37,000  Level Kansas City Center
Tue 04:18:53 AM 37.0817 -98.4567 100° East 413 475 37,000  Level Kansas City Center
Tue 04:19:53 AM 37.0572 -98.3142 102° East 417 480 37,000  Level Kansas City Center
Tue 04:20:54 AM 37.0353 -98.1706 101° East 419 482 37,000  Level Kansas City Center
Tue 04:21:55 AM 37.0128 -98.0292 101° East 418 481 37,000  Level Kansas City Center
Tue 04:22:56 AM 36.9889 -97.8853 102° East 422 486 37,000  Level Kansas City Center
Tue 04:23:56 AM 36.9661 -97.7419 101° East 422 486 37,000  Level Kansas City Center
Tue 04:24:57 AM 36.9433 -97.6000 101° East 420 483 37,000  Level Kansas City Center
Tue 04:25:56 AM 36.9153 -97.4283 102° East 421 484 37,000  Level Kansas City Center
Tue 04:26:56 AM 36.8922 -97.2853 101° East 422 486 37,000  Level Kansas City Center
Tue 04:27:57 AM 36.8686 -97.1422 102° East 422 486 37,000  Level Kansas City Center
Tue 04:28:57 AM 36.8422 -97.0017 103° East 419 482 37,000  Level Kansas City Center
Tue 04:29:58 AM 36.8208 -96.8594 101° East 414 476 37,000  Level Kansas City Center
Tue 04:31:00 AM 36.7956 -96.7147 102° East 423 487 37,000  Level Kansas City Center
Tue 04:31:58 AM 36.7706 -96.5706 102° East 425 489 37,000  Level Kansas City Center
Tue 04:33:01 AM 36.7464 -96.4250 102° East 428 493 37,000  Level Kansas City Center
Tue 04:34:00 AM 36.7197 -96.2800 103° East 429 494 37,000  Level Kansas City Center
Tue 04:35:01 AM 36.6944 -96.1331 102° East 432 497 37,000  Level Kansas City Center
Tue 04:36:03 AM 36.6686 -95.9869 102° East 431 496 37,000  Level Kansas City Center
Tue 04:37:03 AM 36.6414 -95.8375 103° East 437 503 37,000  Level Kansas City Center
Tue 04:38:04 AM 36.6147 -95.6897 103° East 437 503 37,000  Level Kansas City Center
Tue 04:39:05 AM 36.5878 -95.5381 102° East 440 506 37,000  Level Kansas City Center
Tue 04:40:03 AM 36.5608 -95.3833 102° East 452 520 37,000  Level Kansas City Center
Tue 04:41:06 AM 36.5308 -95.2306 104° East 455 524 37,000  Level Kansas City Center
Tue 04:42:04 AM 36.5000 -95.0700 103° East 451 519 37,000  Level Kansas City Center
Tue 04:43:07 AM 36.4711 -94.9197 103° East 446 513 37,000  Level Kansas City Center
Tue 04:44:08 AM 36.4419 -94.7694 104° East 446 513 37,000  Level Kansas City Center
Tue 04:45:07 AM 36.4133 -94.6186 103° East 446 513 37,000  Level Kansas City Center
Tue 04:46:07 AM 36.3833 -94.4678 104° East 448 516 37,000  Level Kansas City Center
Tue 04:46:50 AM 36.3617 -94.3489 103° East 443 510 37,000  Level Memphis Center
Tue 04:47:50 AM 36.3311 -94.1953 104° East 443 510 37,000  Level Memphis Center
Tue 04:48:50 AM 36.3042 -94.0447 102° East 449 517 37,000  Level Memphis Center
Tue 04:49:50 AM 36.2733 -93.8939 104° East 449 517 37,000  Level Memphis Center
Tue 04:50:50 AM 36.2442 -93.7408 103° East 449 517 37,000  Level Memphis Center
Tue 04:51:50 AM 36.2144 -93.6058 105° East 455 524 37,000  Level Memphis Center
Tue 04:52:50 AM 36.1828 -93.4556 105° East 455 524 37,000  Level Memphis Center
Tue 04:53:50 AM 36.1531 -93.3078 104° East 450 518 37,000  Level Memphis Center
Tue 04:54:50 AM 36.1231 -93.1578 104° East 450 518 37,000  Level Memphis Center
Tue 04:55:50 AM 36.0931 -93.0078 104° East 450 518 37,000  Level Memphis Center
Tue 04:56:50 AM 36.0606 -92.8578 105° East 450 518 37,000  Level Memphis Center
Tue 04:57:50 AM 36.0303 -92.7056 104° East 450 518 37,000  Level Memphis Center
Tue 04:58:50 AM 35.9997 -92.5558 104° East 450 518 37,000  Level Memphis Center
Tue 04:59:50 AM 35.9689 -92.4089 104° East 450 518 37,000  Level Memphis Center
Tue 05:00:50 AM 35.9358 -92.2567 105° East 450 518 37,000  Level Memphis Center
Tue 05:01:50 AM 35.9025 -92.1072 105° East 455 524 37,000  Level Memphis Center
Tue 05:02:50 AM 35.8711 -91.9556 104° East 455 524 37,000  Level Memphis Center
Tue 05:03:50 AM 35.8375 -91.8011 105° East 455 524 37,000  Level Memphis Center
Tue 05:04:50 AM 35.8017 -91.6419 105° East 455 524 37,000  Level Memphis Center
Tue 05:05:50 AM 35.7678 -91.4878 105° East 455 524 37,000  Level Memphis Center
Tue 05:06:50 AM 35.7314 -91.3544 109° East 455 524 37,000  Level Memphis Center
Tue 05:07:50 AM 35.6992 -91.2031 105° East 455 524 37,000  Level Memphis Center
Tue 05:08:50 AM 35.6647 -91.0342 104° East 455 524 37,000  Level Memphis Center
Tue 05:09:50 AM 35.6319 -90.8833 105° East 455 524 37,000  Level Memphis Center
Tue 05:10:50 AM 35.6014 -90.7297 104° East 455 524 37,000  Level Memphis Center
Tue 05:11:50 AM 35.5619 -90.5764 108° East 461 531 37,000  Level Memphis Center
Tue 05:12:50 AM 35.5289 -90.4258 105° East 455 524 37,000  Level Memphis Center
Tue 05:13:50 AM 35.4975 -90.2881 106° East 455 524 37,000  Level Memphis Center
Tue 05:14:50 AM 35.4639 -90.1353 105° East 455 524 37,000  Level Memphis Center
Tue 05:15:50 AM 35.4281 -89.9825 106° East 460 529 37,000  Level Memphis Center
Tue 05:16:50 AM 35.3900 -89.8272 107° East 460 529 37,000  Level Memphis Center
Tue 05:17:50 AM 35.3517 -89.6569 105° East 460 529 37,000  Level Memphis Center
Tue 05:18:50 AM 35.3131 -89.5047 107° East 465 535 37,000  Level Memphis Center
Tue 05:19:50 AM 35.2764 -89.3497 106° East 465 535 37,000  Level Memphis Center
Tue 05:20:50 AM 35.2375 -89.1978 107° East 465 535 37,000  Level Memphis Center
Tue 05:21:50 AM 35.2006 -89.0408 106° East 472 543 37,000  Level Memphis Center
Tue 05:22:50 AM 35.1633 -88.8889 107° East 472 543 37,000  Level Memphis Center
Tue 05:23:50 AM 35.1239 -88.7347 107° East 472 543 37,000  Level Memphis Center
Tue 05:24:50 AM 35.0886 -88.5983 108° East 472 543 37,000  Level Memphis Center
Tue 05:25:50 AM 35.0531 -88.4519 106° East 473 544 37,000  Level Memphis Center
Tue 05:26:50 AM 35.0131 -88.3008 108° East 459 528 37,000  Level Memphis Center
Tue 05:27:50 AM 34.9769 -88.1419 105° East 464 534 37,000  Level Memphis Center
Tue 05:28:50 AM 34.9347 -87.9911 109° East 470 541 37,000  Level Memphis Center
Tue 05:29:50 AM 34.8939 -87.8328 107° East 463 533 37,000  Level Memphis Center
Tue 05:30:50 AM 34.8575 -87.6794 106° East 449 517 37,000  Level Memphis Center
Tue 05:31:50 AM 34.8208 -87.5314 107° East 460 529 37,000  Level Memphis Center
Tue 05:32:50 AM 34.7800 -87.3911 109° East 446 513 37,000  Level Memphis Center
Tue 05:35:19 AM 34.6925 -87.0425 107° East 466 536 37,000  Level Atlanta Center
Tue 05:36:19 AM 34.6542 -86.8997 108° East 454 522 37,000 -600 Level Atlanta Center
Tue 05:37:19 AM 34.6114 -86.7619 111° Southeast 447 514 35,800 -1,250 Descending Atlanta Center
Tue 05:38:19 AM 34.5686 -86.6194 110° East 447 514 34,500 -1,400 Descending Atlanta Center
Tue 05:39:19 AM 34.5297 -86.4769 108° East 442 509 33,000 -1,450 Descending Atlanta Center
Tue 05:40:19 AM 34.4847 -86.3319 111° Southeast 448 516 31,600 -1,350 Descending Atlanta Center
Tue 05:41:19 AM 34.4414 -86.1847 110° East 448 516 30,300 -1,450 Descending Atlanta Center
Tue 05:42:19 AM 34.4000 -86.0378 109° East 453 521 28,700 -1,550 Descending Atlanta Center
Tue 05:43:19 AM 34.3522 -85.8906 111° Southeast 458 527 27,200 -1,500 Descending Atlanta Center
Tue 05:44:19 AM 34.3064 -85.7311 109° East 458 527 25,700 -1,650 Descending Atlanta Center
Tue 05:45:19 AM 34.2603 -85.5869 111° Southeast 453 521 23,900 -2,450 Descending Atlanta Center
Tue 05:46:19 AM 34.2203 -85.4481 109° East 447 514 20,800 -2,950 Descending Atlanta Center
Tue 05:47:19 AM 34.1781 -85.3119 111° Southeast 437 503 18,000 -3,050 Descending Atlanta Center
Tue 05:48:19 AM 34.1375 -85.1833 111° Southeast 415 478 14,700 -2,500 Descending Atlanta Center
Tue 05:49:19 AM 34.1011 -85.0597 110° East 402 463 13,000 -1,200 Descending Atlanta Center
Tue 05:50:19 AM 34.0372 -84.9539 126° Southeast 382 440 12,300 -1,500 Descending Atlanta Center
Tue 05:51:19 AM 33.9628 -84.8628 135° Southeast 377 434 10,000 -1,250 Descending Atlanta Center
Tue 05:52:19 AM 33.8964 -84.7972 141° Southeast 338 389 9,800 -1,189 Descending Atlanta Center
Tue 05:53:05 AM 33.8333 -84.7667 158° South 274 315 7,900 -2,038 Descending Atlanta TRACON
Tue 05:54:05 AM 33.7667 -84.7500 168° South 269 310 6,200 -1,895 Descending Atlanta TRACON
Tue 05:54:59 AM 33.7000 -84.7333 168° South 260 299 4,300 -1,778 Descending Atlanta TRACON
Tue 05:55:53 AM 33.6667 -84.6833 129° Southeast 248 285 3,000 -716 Descending Atlanta TRACON
Tue 05:56:48 AM 33.6500 -84.6167 107° East 206 237 3,000  Level Atlanta TRACON

Login

Don't have an account? Register now (free) for customized features, flight alerts, and more!